sensor_id;sensor_type;location;lat;lon;timestamp;temperature;humidity
23731;DHT22;12046;44.702;10.622;2023-06-10T00:02:04;22.70;99.90
23731;DHT22;12046;44.702;10.622;2023-06-10T00:04:29;22.70;99.90
23731;DHT22;12046;44.702;10.622;2023-06-10T00:06:56;22.60;99.90
23731;DHT22;12046;44.702;10.622;2023-06-10T00:09:22;22.60;99.90
23731;DHT22;12046;44.702;10.622;2023-06-10T00:11:48;22.60;99.90
23731;DHT22;12046;44.702;10.622;2023-06-10T00:14:14;22.60;99.90
23731;DHT22;12046;44.702;10.622;2023-06-10T00:16:40;22.60;99.90
23731;DHT22;12046;44.702;10.622;2023-06-10T00:19:06;22.50;99.90
23731;DHT22;12046;44.702;10.622;2023-06-10T00:21:33;22.50;99.90
23731;DHT22;12046;44.702;10.622;2023-06-10T00:24:08;22.40;99.90
23731;DHT22;12046;44.702;10.622;2023-06-10T00:26:40;22.40;99.90
23731;DHT22;12046;44.702;10.622;2023-06-10T00:29:06;22.40;99.90
23731;DHT22;12046;44.702;10.622;2023-06-10T00:31:34;22.40;99.90
23731;DHT22;12046;44.702;10.622;2023-06-10T00:34:00;22.40;99.90
23731;DHT22;12046;44.702;10.622;2023-06-10T00:36:26;22.30;99.90
23731;DHT22;12046;44.702;10.622;2023-06-10T00:38:52;22.30;99.90
23731;DHT22;12046;44.702;10.622;2023-06-10T00:41:18;22.30;99.90
23731;DHT22;12046;44.702;10.622;2023-06-10T00:43:44;22.30;99.90
23731;DHT22;12046;44.702;10.622;2023-06-10T00:46:11;22.30;99.90
23731;DHT22;12046;44.702;10.622;2023-06-10T00:48:38;22.30;99.90
23731;DHT22;12046;44.702;10.622;2023-06-10T00:51:05;22.30;99.90
23731;DHT22;12046;44.702;10.622;2023-06-10T00:53:32;22.30;99.90
23731;DHT22;12046;44.702;10.622;2023-06-10T00:55:58;22.30;99.90
23731;DHT22;12046;44.702;10.622;2023-06-10T00:58:24;22.30;99.90
23731;DHT22;12046;44.702;10.622;2023-06-10T01:00:51;22.40;99.90
23731;DHT22;12046;44.702;10.622;2023-06-10T01:03:17;22.40;99.90
23731;DHT22;12046;44.702;10.622;2023-06-10T01:05:44;22.30;99.90
23731;DHT22;12046;44.702;10.622;2023-06-10T01:08:35;22.30;99.90
23731;DHT22;12046;44.702;10.622;2023-06-10T01:11:07;22.30;99.90
23731;DHT22;12046;44.702;10.622;2023-06-10T01:13:36;22.40;99.90
23731;DHT22;12046;44.702;10.622;2023-06-10T01:16:03;22.40;99.90
23731;DHT22;12046;44.702;10.622;2023-06-10T01:18:30;22.40;99.90
23731;DHT22;12046;44.702;10.622;2023-06-10T01:20:56;22.40;99.90
23731;DHT22;12046;44.702;10.622;2023-06-10T01:23:23;22.50;99.90
23731;DHT22;12046;44.702;10.622;2023-06-10T01:26:04;22.50;99.90
23731;DHT22;12046;44.702;10.622;2023-06-10T01:28:33;22.50;99.90
23731;DHT22;12046;44.702;10.622;2023-06-10T01:31:16;22.50;99.90
23731;DHT22;12046;44.702;10.622;2023-06-10T01:33:46;22.50;99.90
23731;DHT22;12046;44.702;10.622;2023-06-10T01:36:13;22.50;99.90
23731;DHT22;12046;44.702;10.622;2023-06-10T01:38:43;22.40;99.90
23731;DHT22;12046;44.702;10.622;2023-06-10T01:41:11;22.40;99.90
23731;DHT22;12046;44.702;10.622;2023-06-10T01:43:38;22.50;99.90
23731;DHT22;12046;44.702;10.622;2023-06-10T01:46:05;22.50;99.90
23731;DHT22;12046;44.702;10.622;2023-06-10T01:48:32;22.40;99.90
23731;DHT22;12046;44.702;10.622;2023-06-10T01:50:57;22.40;99.90
23731;DHT22;12046;44.702;10.622;2023-06-10T01:53:23;22.40;99.90
23731;DHT22;12046;44.702;10.622;2023-06-10T01:55:49;22.40;99.90
23731;DHT22;12046;44.702;10.622;2023-06-10T01:58:15;22.30;99.90
23731;DHT22;12046;44.702;10.622;2023-06-10T02:00:40;22.30;99.90
23731;DHT22;12046;44.702;10.622;2023-06-10T02:03:06;22.30;99.90
23731;DHT22;12046;44.702;10.622;2023-06-10T02:05:32;22.30;99.90
23731;DHT22;12046;44.702;10.622;2023-06-10T02:07:58;22.30;99.90
23731;DHT22;12046;44.702;10.622;2023-06-10T02:10:24;22.30;99.90
23731;DHT22;12046;44.702;10.622;2023-06-10T02:12:50;22.30;99.90
23731;DHT22;12046;44.702;10.622;2023-06-10T02:15:16;22.30;99.90
23731;DHT22;12046;44.702;10.622;2023-06-10T02:17:41;22.30;99.90
23731;DHT22;12046;44.702;10.622;2023-06-10T02:20:08;22.30;99.90
23731;DHT22;12046;44.702;10.622;2023-06-10T02:22:36;22.30;99.90
23731;DHT22;12046;44.702;10.622;2023-06-10T02:25:03;22.30;99.90
23731;DHT22;12046;44.702;10.622;2023-06-10T02:27:29;22.30;99.90
23731;DHT22;12046;44.702;10.622;2023-06-10T02:29:56;22.30;99.90
23731;DHT22;12046;44.702;10.622;2023-06-10T02:32:22;22.30;99.90
23731;DHT22;12046;44.702;10.622;2023-06-10T02:34:48;22.30;99.90
23731;DHT22;12046;44.702;10.622;2023-06-10T02:37:15;22.30;99.90
23731;DHT22;12046;44.702;10.622;2023-06-10T02:39:41;22.20;99.90
23731;DHT22;12046;44.702;10.622;2023-06-10T02:42:07;22.20;99.90
23731;DHT22;12046;44.702;10.622;2023-06-10T02:44:33;22.20;99.90
23731;DHT22;12046;44.702;10.622;2023-06-10T02:46:58;22.20;99.90
23731;DHT22;12046;44.702;10.622;2023-06-10T02:49:25;22.30;99.90
23731;DHT22;12046;44.702;10.622;2023-06-10T02:51:53;22.20;99.90
23731;DHT22;12046;44.702;10.622;2023-06-10T02:54:22;22.20;99.90
23731;DHT22;12046;44.702;10.622;2023-06-10T02:56:48;22.20;99.90
23731;DHT22;12046;44.702;10.622;2023-06-10T02:59:14;22.20;99.90
23731;DHT22;12046;44.702;10.622;2023-06-10T03:01:41;22.20;99.90
23731;DHT22;12046;44.702;10.622;2023-06-10T03:04:07;22.20;99.90
23731;DHT22;12046;44.702;10.622;2023-06-10T03:06:33;22.20;99.90
23731;DHT22;12046;44.702;10.622;2023-06-10T03:09:03;22.20;99.90
23731;DHT22;12046;44.702;10.622;2023-06-10T03:11:33;22.20;99.90
23731;DHT22;12046;44.702;10.622;2023-06-10T07:42:06;25.20;99.90
23731;DHT22;12046;44.702;10.622;2023-06-10T07:44:32;25.30;99.90
23731;DHT22;12046;44.702;10.622;2023-06-10T07:46:58;25.30;99.90
23731;DHT22;12046;44.702;10.622;2023-06-10T07:49:23;25.30;99.90
23731;DHT22;12046;44.702;10.622;2023-06-10T07:51:50;25.40;99.90
23731;DHT22;12046;44.702;10.622;2023-06-10T07:54:16;25.40;99.90
23731;DHT22;12046;44.702;10.622;2023-06-10T07:56:42;25.50;99.90
23731;DHT22;12046;44.702;10.622;2023-06-10T07:59:07;25.60;99.90
23731;DHT22;12046;44.702;10.622;2023-06-10T08:01:33;25.60;99.90
23731;DHT22;12046;44.702;10.622;2023-06-10T08:04:01;25.70;99.90
23731;DHT22;12046;44.702;10.622;2023-06-10T08:06:27;25.80;99.90
23731;DHT22;12046;44.702;10.622;2023-06-10T08:08:53;25.90;99.90
23731;DHT22;12046;44.702;10.622;2023-06-10T08:11:19;25.90;99.90
23731;DHT22;12046;44.702;10.622;2023-06-10T08:13:44;26.00;99.90
23731;DHT22;12046;44.702;10.622;2023-06-10T08:16:10;26.10;99.90
23731;DHT22;12046;44.702;10.622;2023-06-10T08:18:36;26.10;99.90
23731;DHT22;12046;44.702;10.622;2023-06-10T08:21:02;26.10;99.90
23731;DHT22;12046;44.702;10.622;2023-06-10T08:23:27;26.10;99.90
23731;DHT22;12046;44.702;10.622;2023-06-10T08:25:53;26.10;99.90
23731;DHT22;12046;44.702;10.622;2023-06-10T08:28:19;26.20;99.90
23731;DHT22;12046;44.702;10.622;2023-06-10T08:30:45;26.30;99.90
23731;DHT22;12046;44.702;10.622;2023-06-10T08:33:11;26.30;99.90
23731;DHT22;12046;44.702;10.622;2023-06-10T08:35:36;26.40;99.90
23731;DHT22;12046;44.702;10.622;2023-06-10T08:38:02;26.40;99.90
23731;DHT22;12046;44.702;10.622;2023-06-10T08:40:28;26.50;99.90
23731;DHT22;12046;44.702;10.622;2023-06-10T08:43:28;26.60;99.90
23731;DHT22;12046;44.702;10.622;2023-06-10T08:46:00;26.60;99.90
23731;DHT22;12046;44.702;10.622;2023-06-10T08:48:29;26.60;99.90
23731;DHT22;12046;44.702;10.622;2023-06-10T08:50:57;26.50;99.90
23731;DHT22;12046;44.702;10.622;2023-06-10T08:53:23;26.30;99.90
23731;DHT22;12046;44.702;10.622;2023-06-10T08:55:53;26.10;99.90
23731;DHT22;12046;44.702;10.622;2023-06-10T08:58:20;25.90;99.90
23731;DHT22;12046;44.702;10.622;2023-06-10T09:00:46;25.80;99.90
23731;DHT22;12046;44.702;10.622;2023-06-10T09:03:12;25.60;99.90
23731;DHT22;12046;44.702;10.622;2023-06-10T09:05:38;25.50;99.90
23731;DHT22;12046;44.702;10.622;2023-06-10T09:08:06;25.40;99.90
23731;DHT22;12046;44.702;10.622;2023-06-10T09:10:33;25.30;99.90
23731;DHT22;12046;44.702;10.622;2023-06-10T09:12:58;25.20;99.90
23731;DHT22;12046;44.702;10.622;2023-06-10T09:15:24;25.10;99.90
23731;DHT22;12046;44.702;10.622;2023-06-10T09:17:50;25.10;99.90
23731;DHT22;12046;44.702;10.622;2023-06-10T09:20:17;25.00;99.90
23731;DHT22;12046;44.702;10.622;2023-06-10T09:22:43;25.00;99.90
23731;DHT22;12046;44.702;10.622;2023-06-10T09:25:11;24.90;99.90
23731;DHT22;12046;44.702;10.622;2023-06-10T09:27:55;24.90;99.90
23731;DHT22;12046;44.702;10.622;2023-06-10T09:30:33;24.80;99.90
23731;DHT22;12046;44.702;10.622;2023-06-10T09:33:13;24.70;99.90
23731;DHT22;12046;44.702;10.622;2023-06-10T09:35:48;24.70;99.90
23731;DHT22;12046;44.702;10.622;2023-06-10T09:38:19;24.50;99.90
23731;DHT22;12046;44.702;10.622;2023-06-10T09:40:55;24.50;99.90
23731;DHT22;12046;44.702;10.622;2023-06-10T09:43:21;24.40;99.90
23731;DHT22;12046;44.702;10.622;2023-06-10T09:45:48;24.30;99.90
23731;DHT22;12046;44.702;10.622;2023-06-10T09:48:14;24.10;99.90
23731;DHT22;12046;44.702;10.622;2023-06-10T09:50:44;24.10;99.90
23731;DHT22;12046;44.702;10.622;2023-06-10T09:53:11;24.10;99.90
23731;DHT22;12046;44.702;10.622;2023-06-10T09:55:41;24.10;99.90
23731;DHT22;12046;44.702;10.622;2023-06-10T09:58:07;24.00;99.90
23731;DHT22;12046;44.702;10.622;2023-06-10T10:00:33;24.00;99.90
23731;DHT22;12046;44.702;10.622;2023-06-10T10:02:59;24.00;99.90
23731;DHT22;12046;44.702;10.622;2023-06-10T10:05:26;24.00;99.90
23731;DHT22;12046;44.702;10.622;2023-06-10T10:07:53;24.10;99.90
23731;DHT22;12046;44.702;10.622;2023-06-10T10:10:22;24.00;99.90
23731;DHT22;12046;44.702;10.622;2023-06-10T10:12:48;24.00;99.90
23731;DHT22;12046;44.702;10.622;2023-06-10T10:15:17;24.00;99.90
23731;DHT22;12046;44.702;10.622;2023-06-10T10:17:53;23.90;99.90
23731;DHT22;12046;44.702;10.622;2023-06-10T10:20:26;23.90;99.90
23731;DHT22;12046;44.702;10.622;2023-06-10T10:22:56;23.90;99.90
23731;DHT22;12046;44.702;10.622;2023-06-10T10:25:24;23.90;99.90
23731;DHT22;12046;44.702;10.622;2023-06-10T10:27:57;23.80;99.90
23731;DHT22;12046;44.702;10.622;2023-06-10T10:30:23;23.90;99.90
23731;DHT22;12046;44.702;10.622;2023-06-10T10:32:59;23.90;99.90
23731;DHT22;12046;44.702;10.622;2023-06-10T10:35:27;23.90;99.90
23731;DHT22;12046;44.702;10.622;2023-06-10T10:37:54;23.90;99.90
23731;DHT22;12046;44.702;10.622;2023-06-10T10:40:24;23.90;99.90
23731;DHT22;12046;44.702;10.622;2023-06-10T10:42:51;24.00;99.90
23731;DHT22;12046;44.702;10.622;2023-06-10T10:45:17;24.00;99.90
23731;DHT22;12046;44.702;10.622;2023-06-10T10:47:52;24.00;99.90
23731;DHT22;12046;44.702;10.622;2023-06-10T10:50:20;24.10;99.90
23731;DHT22;12046;44.702;10.622;2023-06-10T10:52:55;24.10;99.90
23731;DHT22;12046;44.702;10.622;2023-06-10T10:55:26;24.20;99.90
23731;DHT22;12046;44.702;10.622;2023-06-10T11:00:35;24.40;99.90
23731;DHT22;12046;44.702;10.622;2023-06-10T11:03:08;24.40;99.90
23731;DHT22;12046;44.702;10.622;2023-06-10T11:08:04;24.60;99.90
23731;DHT22;12046;44.702;10.622;2023-06-10T11:10:38;24.70;99.90
23731;DHT22;12046;44.702;10.622;2023-06-10T11:13:14;24.80;99.90
23731;DHT22;12046;44.702;10.622;2023-06-10T11:15:47;24.90;99.90
23731;DHT22;12046;44.702;10.622;2023-06-10T11:21:03;25.10;99.90
23731;DHT22;12046;44.702;10.622;2023-06-10T11:23:32;25.30;99.90
23731;DHT22;12046;44.702;10.622;2023-06-10T11:33:59;25.80;99.90
23731;DHT22;12046;44.702;10.622;2023-06-10T11:36:25;25.90;99.90
23731;DHT22;12046;44.702;10.622;2023-06-10T11:39:03;25.90;99.90
23731;DHT22;12046;44.702;10.622;2023-06-10T11:41:29;26.00;99.90
23731;DHT22;12046;44.702;10.622;2023-06-10T11:44:10;26.00;99.90
23731;DHT22;12046;44.702;10.622;2023-06-10T11:46:37;26.00;99.90
23731;DHT22;12046;44.702;10.622;2023-06-10T11:49:03;25.90;99.90
23731;DHT22;12046;44.702;10.622;2023-06-10T11:51:31;25.80;99.90
23731;DHT22;12046;44.702;10.622;2023-06-10T11:53:57;25.70;99.90
23731;DHT22;12046;44.702;10.622;2023-06-10T11:56:26;25.70;99.90
23731;DHT22;12046;44.702;10.622;2023-06-10T12:01:26;25.80;99.90
23731;DHT22;12046;44.702;10.622;2023-06-10T12:04:00;25.90;99.90
23731;DHT22;12046;44.702;10.622;2023-06-10T12:06:26;26.00;99.90
23731;DHT22;12046;44.702;10.622;2023-06-10T12:08:53;26.20;99.90
23731;DHT22;12046;44.702;10.622;2023-06-10T12:11:19;26.40;99.90
23731;DHT22;12046;44.702;10.622;2023-06-10T12:13:47;26.50;99.90
23731;DHT22;12046;44.702;10.622;2023-06-10T12:16:16;26.60;99.90
23731;DHT22;12046;44.702;10.622;2023-06-10T12:18:46;26.70;99.90
23731;DHT22;12046;44.702;10.622;2023-06-10T12:21:19;26.90;99.90
23731;DHT22;12046;44.702;10.622;2023-06-10T12:24:09;27.00;99.90
23731;DHT22;12046;44.702;10.622;2023-06-10T12:26:44;27.20;99.90
23731;DHT22;12046;44.702;10.622;2023-06-10T12:29:18;27.40;99.90
23731;DHT22;12046;44.702;10.622;2023-06-10T12:31:58;27.50;99.90
23731;DHT22;12046;44.702;10.622;2023-06-10T12:34:35;27.70;99.90
23731;DHT22;12046;44.702;10.622;2023-06-10T12:37:05;27.90;99.90
23731;DHT22;12046;44.702;10.622;2023-06-10T12:39:33;28.00;99.90
23731;DHT22;12046;44.702;10.622;2023-06-10T12:41:59;28.20;99.90
23731;DHT22;12046;44.702;10.622;2023-06-10T12:44:38;28.30;99.90
23731;DHT22;12046;44.702;10.622;2023-06-10T12:47:10;28.30;99.90
23731;DHT22;12046;44.702;10.622;2023-06-10T12:49:38;28.30;99.90
23731;DHT22;12046;44.702;10.622;2023-06-10T12:52:05;28.20;99.90
23731;DHT22;12046;44.702;10.622;2023-06-10T12:54:34;28.20;99.90
23731;DHT22;12046;44.702;10.622;2023-06-10T12:57:00;28.30;99.90
23731;DHT22;12046;44.702;10.622;2023-06-10T12:59:26;28.30;99.90
23731;DHT22;12046;44.702;10.622;2023-06-10T13:01:53;28.40;99.90
23731;DHT22;12046;44.702;10.622;2023-06-10T13:04:19;28.40;99.90
23731;DHT22;12046;44.702;10.622;2023-06-10T13:06:46;28.30;99.90
23731;DHT22;12046;44.702;10.622;2023-06-10T13:09:13;28.30;99.90
23731;DHT22;12046;44.702;10.622;2023-06-10T13:11:39;28.20;99.90
23731;DHT22;12046;44.702;10.622;2023-06-10T13:14:05;28.10;99.90
23731;DHT22;12046;44.702;10.622;2023-06-10T13:16:32;28.00;99.90
23731;DHT22;12046;44.702;10.622;2023-06-10T13:18:58;27.90;99.90
23731;DHT22;12046;44.702;10.622;2023-06-10T13:21:24;27.90;99.90
23731;DHT22;12046;44.702;10.622;2023-06-10T13:23:51;27.90;99.90
23731;DHT22;12046;44.702;10.622;2023-06-10T13:26:17;28.10;99.90
23731;DHT22;12046;44.702;10.622;2023-06-10T13:28:46;28.00;99.90
23731;DHT22;12046;44.702;10.622;2023-06-10T13:31:12;27.90;99.90
23731;DHT22;12046;44.702;10.622;2023-06-10T13:33:38;27.80;99.90
23731;DHT22;12046;44.702;10.622;2023-06-10T13:36:04;27.70;99.90
23731;DHT22;12046;44.702;10.622;2023-06-10T13:38:29;27.60;99.90
23731;DHT22;12046;44.702;10.622;2023-06-10T13:40:55;27.30;99.90
23731;DHT22;12046;44.702;10.622;2023-06-10T13:43:21;27.10;99.90
23731;DHT22;12046;44.702;10.622;2023-06-10T13:45:47;26.90;99.90
23731;DHT22;12046;44.702;10.622;2023-06-10T13:48:13;26.70;99.90
23731;DHT22;12046;44.702;10.622;2023-06-10T13:50:39;26.50;99.90
23731;DHT22;12046;44.702;10.622;2023-06-10T13:53:05;26.30;99.90
23731;DHT22;12046;44.702;10.622;2023-06-10T13:55:30;26.00;99.90
23731;DHT22;12046;44.702;10.622;2023-06-10T13:57:56;25.80;99.90
23731;DHT22;12046;44.702;10.622;2023-06-10T14:00:22;25.60;99.90
23731;DHT22;12046;44.702;10.622;2023-06-10T14:02:48;25.40;99.90
23731;DHT22;12046;44.702;10.622;2023-06-10T14:05:14;25.20;99.90
23731;DHT22;12046;44.702;10.622;2023-06-10T14:07:40;25.10;99.90
23731;DHT22;12046;44.702;10.622;2023-06-10T14:10:06;25.00;99.90
23731;DHT22;12046;44.702;10.622;2023-06-10T14:12:34;24.90;99.90
23731;DHT22;12046;44.702;10.622;2023-06-10T14:15:00;24.80;99.90
23731;DHT22;12046;44.702;10.622;2023-06-10T14:17:26;24.60;99.90
23731;DHT22;12046;44.702;10.622;2023-06-10T14:19:52;24.50;99.90
23731;DHT22;12046;44.702;10.622;2023-06-10T14:22:18;24.40;99.90
23731;DHT22;12046;44.702;10.622;2023-06-10T14:24:44;24.30;99.90
23731;DHT22;12046;44.702;10.622;2023-06-10T14:27:10;24.10;99.90
23731;DHT22;12046;44.702;10.622;2023-06-10T14:29:36;24.10;99.90
23731;DHT22;12046;44.702;10.622;2023-06-10T14:32:01;24.10;99.90
23731;DHT22;12046;44.702;10.622;2023-06-10T14:34:27;24.00;99.90
23731;DHT22;12046;44.702;10.622;2023-06-10T14:36:55;24.00;99.90
23731;DHT22;12046;44.702;10.622;2023-06-10T14:39:21;24.00;99.90
23731;DHT22;12046;44.702;10.622;2023-06-10T14:41:47;24.10;99.90
23731;DHT22;12046;44.702;10.622;2023-06-10T14:44:13;24.10;99.90
23731;DHT22;12046;44.702;10.622;2023-06-10T14:46:39;24.20;99.90
23731;DHT22;12046;44.702;10.622;2023-06-10T14:49:04;24.20;99.90
23731;DHT22;12046;44.702;10.622;2023-06-10T14:51:30;24.30;99.90
23731;DHT22;12046;44.702;10.622;2023-06-10T14:53:56;24.30;99.90
23731;DHT22;12046;44.702;10.622;2023-06-10T14:56:40;24.40;99.90
23731;DHT22;12046;44.702;10.622;2023-06-10T14:59:06;24.40;99.90
23731;DHT22;12046;44.702;10.622;2023-06-10T15:01:32;24.50;99.90
23731;DHT22;12046;44.702;10.622;2023-06-10T15:03:57;24.60;99.90
23731;DHT22;12046;44.702;10.622;2023-06-10T15:06:23;24.60;99.90
23731;DHT22;12046;44.702;10.622;2023-06-10T15:08:49;24.80;99.90
23731;DHT22;12046;44.702;10.622;2023-06-10T15:11:15;24.90;99.90
23731;DHT22;12046;44.702;10.622;2023-06-10T15:13:44;24.90;99.90
23731;DHT22;12046;44.702;10.622;2023-06-10T15:16:10;25.00;99.90
23731;DHT22;12046;44.702;10.622;2023-06-10T15:18:36;25.10;99.90
23731;DHT22;12046;44.702;10.622;2023-06-10T15:21:01;25.10;99.90
23731;DHT22;12046;44.702;10.622;2023-06-10T15:23:27;25.10;99.90
23731;DHT22;12046;44.702;10.622;2023-06-10T15:25:53;25.10;99.90
23731;DHT22;12046;44.702;10.622;2023-06-10T15:28:19;25.10;99.90
23731;DHT22;12046;44.702;10.622;2023-06-10T15:30:45;25.10;99.90
23731;DHT22;12046;44.702;10.622;2023-06-10T15:33:11;25.10;99.90
23731;DHT22;12046;44.702;10.622;2023-06-10T15:35:36;25.00;99.90
23731;DHT22;12046;44.702;10.622;2023-06-10T15:38:02;25.00;99.90
23731;DHT22;12046;44.702;10.622;2023-06-10T15:40:29;25.00;99.90
23731;DHT22;12046;44.702;10.622;2023-06-10T15:42:55;25.00;99.90
23731;DHT22;12046;44.702;10.622;2023-06-10T15:45:21;25.00;99.90
23731;DHT22;12046;44.702;10.622;2023-06-10T15:47:47;25.00;99.90
23731;DHT22;12046;44.702;10.622;2023-06-10T15:50:12;25.00;99.90
23731;DHT22;12046;44.702;10.622;2023-06-10T15:52:38;25.00;99.90
23731;DHT22;12046;44.702;10.622;2023-06-10T15:55:04;25.00;99.90
23731;DHT22;12046;44.702;10.622;2023-06-10T15:57:30;25.00;99.90
23731;DHT22;12046;44.702;10.622;2023-06-10T15:59:56;25.00;99.90
23731;DHT22;12046;44.702;10.622;2023-06-10T16:02:21;25.00;99.90
23731;DHT22;12046;44.702;10.622;2023-06-10T16:04:47;25.00;99.90
23731;DHT22;12046;44.702;10.622;2023-06-10T16:07:13;25.10;99.90
23731;DHT22;12046;44.702;10.622;2023-06-10T16:09:38;25.10;99.90
23731;DHT22;12046;44.702;10.622;2023-06-10T16:12:04;25.10;99.90
23731;DHT22;12046;44.702;10.622;2023-06-10T16:14:31;25.10;99.90
23731;DHT22;12046;44.702;10.622;2023-06-10T16:16:57;25.10;99.90
23731;DHT22;12046;44.702;10.622;2023-06-10T16:19:24;25.10;99.90
23731;DHT22;12046;44.702;10.622;2023-06-10T16:21:50;25.10;99.90
23731;DHT22;12046;44.702;10.622;2023-06-10T16:24:16;25.10;99.90
23731;DHT22;12046;44.702;10.622;2023-06-10T16:26:43;25.10;99.90
23731;DHT22;12046;44.702;10.622;2023-06-10T16:29:09;25.10;99.90
23731;DHT22;12046;44.702;10.622;2023-06-10T16:31:35;25.10;99.90
23731;DHT22;12046;44.702;10.622;2023-06-10T16:34:00;25.10;99.90
23731;DHT22;12046;44.702;10.622;2023-06-10T16:36:26;25.10;99.90
23731;DHT22;12046;44.702;10.622;2023-06-10T16:38:52;25.10;99.90
23731;DHT22;12046;44.702;10.622;2023-06-10T16:41:21;25.10;99.90
23731;DHT22;12046;44.702;10.622;2023-06-10T16:43:47;25.10;99.90
23731;DHT22;12046;44.702;10.622;2023-06-10T16:46:13;25.10;99.90
23731;DHT22;12046;44.702;10.622;2023-06-10T16:48:38;25.00;99.90
23731;DHT22;12046;44.702;10.622;2023-06-10T16:51:04;25.00;99.90
23731;DHT22;12046;44.702;10.622;2023-06-10T16:53:30;24.90;99.90
23731;DHT22;12046;44.702;10.622;2023-06-10T16:55:56;24.90;99.90
23731;DHT22;12046;44.702;10.622;2023-06-10T16:58:22;24.80;99.90
23731;DHT22;12046;44.702;10.622;2023-06-10T17:00:48;24.80;99.90
23731;DHT22;12046;44.702;10.622;2023-06-10T17:03:15;24.80;99.90
23731;DHT22;12046;44.702;10.622;2023-06-10T17:05:40;24.80;99.90
23731;DHT22;12046;44.702;10.622;2023-06-10T17:08:06;24.80;99.90
23731;DHT22;12046;44.702;10.622;2023-06-10T17:10:32;24.80;99.90
23731;DHT22;12046;44.702;10.622;2023-06-10T17:12:58;24.90;99.90
23731;DHT22;12046;44.702;10.622;2023-06-10T17:15:25;24.90;99.90
23731;DHT22;12046;44.702;10.622;2023-06-10T17:17:50;24.80;99.90
23731;DHT22;12046;44.702;10.622;2023-06-10T17:20:16;24.90;99.90
23731;DHT22;12046;44.702;10.622;2023-06-10T17:22:42;24.80;99.90
23731;DHT22;12046;44.702;10.622;2023-06-10T17:25:08;24.80;99.90
23731;DHT22;12046;44.702;10.622;2023-06-10T17:27:34;24.80;99.90
23731;DHT22;12046;44.702;10.622;2023-06-10T17:30:00;24.80;99.90
23731;DHT22;12046;44.702;10.622;2023-06-10T17:32:26;24.80;99.90
23731;DHT22;12046;44.702;10.622;2023-06-10T17:34:52;24.90;99.90
23731;DHT22;12046;44.702;10.622;2023-06-10T17:37:18;24.90;99.90
23731;DHT22;12046;44.702;10.622;2023-06-10T17:39:47;24.80;99.90
23731;DHT22;12046;44.702;10.622;2023-06-10T17:42:13;24.80;99.90
23731;DHT22;12046;44.702;10.622;2023-06-10T17:44:39;24.90;99.90
23731;DHT22;12046;44.702;10.622;2023-06-10T17:47:05;24.80;99.90
23731;DHT22;12046;44.702;10.622;2023-06-10T17:49:31;24.90;99.90
23731;DHT22;12046;44.702;10.622;2023-06-10T17:51:56;24.80;99.90
23731;DHT22;12046;44.702;10.622;2023-06-10T17:54:22;24.80;99.90
23731;DHT22;12046;44.702;10.622;2023-06-10T17:56:48;24.80;99.90
23731;DHT22;12046;44.702;10.622;2023-06-10T17:59:14;24.80;99.90
23731;DHT22;12046;44.702;10.622;2023-06-10T18:01:40;24.70;99.90
23731;DHT22;12046;44.702;10.622;2023-06-10T18:04:06;24.70;99.90
23731;DHT22;12046;44.702;10.622;2023-06-10T18:06:33;24.60;99.90
23731;DHT22;12046;44.702;10.622;2023-06-10T18:08:59;24.50;99.90
23731;DHT22;12046;44.702;10.622;2023-06-10T18:11:25;24.50;99.90
23731;DHT22;12046;44.702;10.622;2023-06-10T18:13:51;24.40;99.90
23731;DHT22;12046;44.702;10.622;2023-06-10T18:16:17;24.40;99.90
23731;DHT22;12046;44.702;10.622;2023-06-10T18:18:43;24.30;99.90
23731;DHT22;12046;44.702;10.622;2023-06-10T18:21:10;24.20;99.90
23731;DHT22;12046;44.702;10.622;2023-06-10T18:23:36;24.10;99.90
23731;DHT22;12046;44.702;10.622;2023-06-10T18:26:02;24.10;99.90
23731;DHT22;12046;44.702;10.622;2023-06-10T18:28:28;24.00;99.90
23731;DHT22;12046;44.702;10.622;2023-06-10T18:30:57;24.00;99.90
23731;DHT22;12046;44.702;10.622;2023-06-10T18:33:24;23.90;99.90
23731;DHT22;12046;44.702;10.622;2023-06-10T18:35:50;23.90;99.90
23731;DHT22;12046;44.702;10.622;2023-06-10T18:38:16;23.80;99.90
23731;DHT22;12046;44.702;10.622;2023-06-10T18:40:41;23.80;99.90
23731;DHT22;12046;44.702;10.622;2023-06-10T18:43:08;23.70;99.90
23731;DHT22;12046;44.702;10.622;2023-06-10T18:45:34;23.70;99.90
23731;DHT22;12046;44.702;10.622;2023-06-10T18:48:00;23.60;99.90
23731;DHT22;12046;44.702;10.622;2023-06-10T18:50:26;23.50;99.90
23731;DHT22;12046;44.702;10.622;2023-06-10T18:52:52;23.50;99.90
23731;DHT22;12046;44.702;10.622;2023-06-10T18:55:18;23.50;99.90
23731;DHT22;12046;44.702;10.622;2023-06-10T18:57:44;23.40;99.90
23731;DHT22;12046;44.702;10.622;2023-06-10T19:00:10;23.40;99.90
23731;DHT22;12046;44.702;10.622;2023-06-10T19:02:36;23.40;99.90
23731;DHT22;12046;44.702;10.622;2023-06-10T19:05:03;23.40;99.90
23731;DHT22;12046;44.702;10.622;2023-06-10T19:07:29;23.30;99.90
23731;DHT22;12046;44.702;10.622;2023-06-10T19:09:55;23.30;99.90
23731;DHT22;12046;44.702;10.622;2023-06-10T19:12:20;23.30;99.90
23731;DHT22;12046;44.702;10.622;2023-06-10T19:14:48;23.20;99.90
23731;DHT22;12046;44.702;10.622;2023-06-10T19:17:14;23.20;99.90
23731;DHT22;12046;44.702;10.622;2023-06-10T19:19:42;23.20;99.90
23731;DHT22;12046;44.702;10.622;2023-06-10T19:22:08;23.10;99.90
23731;DHT22;12046;44.702;10.622;2023-06-10T19:24:34;23.10;99.90
23731;DHT22;12046;44.702;10.622;2023-06-10T19:27:00;23.00;99.90
23731;DHT22;12046;44.702;10.622;2023-06-10T19:29:26;23.00;99.90
23731;DHT22;12046;44.702;10.622;2023-06-10T19:31:51;23.00;99.90
23731;DHT22;12046;44.702;10.622;2023-06-10T19:34:17;22.90;99.90
23731;DHT22;12046;44.702;10.622;2023-06-10T19:36:43;22.90;99.90
23731;DHT22;12046;44.702;10.622;2023-06-10T19:39:09;22.90;99.90
23731;DHT22;12046;44.702;10.622;2023-06-10T19:41:36;22.80;99.90
23731;DHT22;12046;44.702;10.622;2023-06-10T19:44:01;22.80;99.90
23731;DHT22;12046;44.702;10.622;2023-06-10T19:46:27;22.80;99.90
23731;DHT22;12046;44.702;10.622;2023-06-10T19:48:53;22.80;99.90
23731;DHT22;12046;44.702;10.622;2023-06-10T19:51:20;22.80;99.90
23731;DHT22;12046;44.702;10.622;2023-06-10T19:53:46;22.80;99.90
23731;DHT22;12046;44.702;10.622;2023-06-10T19:56:13;22.80;99.90
23731;DHT22;12046;44.702;10.622;2023-06-10T19:58:45;22.70;99.90
23731;DHT22;12046;44.702;10.622;2023-06-10T20:01:12;22.80;99.90
23731;DHT22;12046;44.702;10.622;2023-06-10T20:03:38;22.80;99.90